createdAt,value
2023-02-18T00:01:31.809Z,22.58
2023-02-18T00:04:00.203Z,23.33
2023-02-18T00:06:29.465Z,23.55
2023-02-18T00:08:59.047Z,21.98
2023-02-18T00:11:27.218Z,21.88
2023-02-18T00:13:58.094Z,19.88
2023-02-18T00:16:26.729Z,19.33
2023-02-18T00:18:58.147Z,16.75
2023-02-18T00:21:26.708Z,17.17
2023-02-18T00:23:54.582Z,16.60
2023-02-18T00:26:22.206Z,16.10
2023-02-18T00:28:51.659Z,13.68
2023-02-18T00:31:23.364Z,13.73
2023-02-18T00:33:51.529Z,14.27
2023-02-18T00:36:22.354Z,14.52
2023-02-18T00:38:52.520Z,13.57
2023-02-18T00:41:21.176Z,14.30
2023-02-18T00:43:48.829Z,14.68
2023-02-18T00:46:17.224Z,13.70
2023-02-18T00:48:45.475Z,13.57
2023-02-18T00:51:13.349Z,13.63
2023-02-18T00:53:42.814Z,13.75
2023-02-18T00:56:10.828Z,13.75
2023-02-18T00:58:39.306Z,13.55
2023-02-18T01:01:09.008Z,12.70
2023-02-18T01:03:37.316Z,13.82
2023-02-18T01:06:06.172Z,13.68
2023-02-18T01:08:35.506Z,13.63
2023-02-18T01:11:05.797Z,13.85
2023-02-18T01:13:33.437Z,14.20
2023-02-18T01:16:01.058Z,14.38
2023-02-18T01:18:31.131Z,13.57
2023-02-18T01:20:59.349Z,13.77
2023-02-18T01:23:27.400Z,12.77
2023-02-18T01:25:56.363Z,13.70
2023-02-18T01:28:26.143Z,13.32
2023-02-18T01:30:54.512Z,13.38
2023-02-18T01:33:22.694Z,13.32
2023-02-18T01:35:52.505Z,14.32
2023-02-18T01:38:20.068Z,13.13
2023-02-18T01:43:35.271Z,12.65
2023-02-18T01:46:16.347Z,12.73
2023-02-18T01:48:51.817Z,12.57
2023-02-18T01:51:23.558Z,12.40
2023-02-18T01:53:55.955Z,11.43
2023-02-18T01:56:32.449Z,12.10
2023-02-18T01:59:06.395Z,11.82
2023-02-18T02:01:36.536Z,12.18
2023-02-18T02:04:04.842Z,11.82
2023-02-18T02:06:33.116Z,13.27
2023-02-18T02:09:04.182Z,13.45
2023-02-18T02:11:49.905Z,13.55
2023-02-18T02:14:30.938Z,14.30
2023-02-18T02:17:05.945Z,14.02
2023-02-18T02:20:24.360Z,14.80
2023-02-18T02:23:37.754Z,15.05
2023-02-18T02:26:38.225Z,15.25
2023-02-18T02:29:51.475Z,14.52
2023-02-18T02:32:44.231Z,14.68
2023-02-18T02:35:21.038Z,14.88
2023-02-18T02:37:57.436Z,14.10
2023-02-18T02:40:33.476Z,14.35
2023-02-18T02:43:11.015Z,13.57
2023-02-18T02:45:50.144Z,13.63
2023-02-18T02:48:32.891Z,12.85
2023-02-18T02:51:09.702Z,12.80
2023-02-18T02:53:40.556Z,12.77
2023-02-18T02:56:15.239Z,12.73
2023-02-18T02:58:45.160Z,11.98
2023-02-18T03:01:37.023Z,12.77
2023-02-18T03:04:32.603Z,11.93
2023-02-18T03:07:35.452Z,13.02
2023-02-18T03:10:23.932Z,12.52
2023-02-18T03:13:01.654Z,12.23
2023-02-18T03:15:38.726Z,12.00
2023-02-18T03:18:13.806Z,11.95
2023-02-18T03:20:48.032Z,12.00
2023-02-18T03:23:21.001Z,13.00
2023-02-18T03:25:50.322Z,11.32
2023-02-18T03:28:20.722Z,11.27
2023-02-18T03:30:51.625Z,11.73
2023-02-18T03:33:24.142Z,11.48
2023-02-18T03:35:56.140Z,11.25
2023-02-18T03:38:32.040Z,11.73
2023-02-18T03:41:00.168Z,12.38
2023-02-18T03:43:29.397Z,11.90
2023-02-18T03:45:57.640Z,12.63
2023-02-18T03:48:25.994Z,12.23
2023-02-18T03:50:54.219Z,11.85
2023-02-18T03:53:22.202Z,12.02
2023-02-18T03:55:52.360Z,11.93
2023-02-18T03:58:20.402Z,12.13
2023-02-18T04:00:48.268Z,11.27
2023-02-18T04:03:16.538Z,12.10
2023-02-18T04:05:44.405Z,11.82
2023-02-18T04:08:12.493Z,11.73
2023-02-18T04:10:40.331Z,11.23
2023-02-18T04:13:09.785Z,11.13
2023-02-18T04:15:37.624Z,11.48
2023-02-18T04:18:05.823Z,11.60
2023-02-18T04:20:33.745Z,10.98
2023-02-18T04:23:01.640Z,12.50
2023-02-18T04:25:29.581Z,59.80
2023-02-18T04:27:57.862Z,27.15
2023-02-18T04:30:28.073Z,21.50
2023-02-18T04:32:56.064Z,18.42
2023-02-18T04:35:24.009Z,18.83
2023-02-18T04:37:51.890Z,18.38
2023-02-18T04:40:19.995Z,18.58
2023-02-18T04:42:47.856Z,19.10
2023-02-18T04:45:15.723Z,19.73
2023-02-18T04:47:45.219Z,19.02
2023-02-18T04:50:13.079Z,18.55
2023-02-18T04:52:41.105Z,20.25
2023-02-18T04:55:09.177Z,20.85
2023-02-18T04:57:37.221Z,20.08
2023-02-18T05:00:07.171Z,20.40
2023-02-18T05:02:35.131Z,21.98
2023-02-18T05:05:05.965Z,21.33
2023-02-18T05:07:34.699Z,21.42
2023-02-18T05:10:02.874Z,21.80
2023-02-18T05:12:30.975Z,21.63
2023-02-18T05:14:58.798Z,21.30
2023-02-18T05:17:26.751Z,23.15
2023-02-18T05:19:54.593Z,22.02
2023-02-18T05:22:24.028Z,23.08
2023-02-18T05:24:51.950Z,22.80
2023-02-18T05:27:19.920Z,22.60
2023-02-18T05:29:47.869Z,24.23
2023-02-18T05:32:15.841Z,23.30
2023-02-18T05:34:43.817Z,22.20
2023-02-18T05:37:13.893Z,22.35
2023-02-18T05:39:43.312Z,21.60
2023-02-18T05:42:11.536Z,23.27
2023-02-18T05:44:39.450Z,21.38
2023-02-18T05:47:11.426Z,22.10
2023-02-18T05:49:41.028Z,21.92
2023-02-18T05:52:09.573Z,21.13
2023-02-18T05:54:38.635Z,21.63
2023-02-18T05:57:09.543Z,21.60
2023-02-18T05:59:37.441Z,21.42
2023-02-18T06:02:05.252Z,21.70
2023-02-18T06:04:33.328Z,20.45
2023-02-18T06:07:01.117Z,23.02
2023-02-18T06:09:29.138Z,22.23
2023-02-18T06:11:56.908Z,22.50
2023-02-18T06:14:26.363Z,21.60
2023-02-18T06:16:54.154Z,21.10
2023-02-18T06:19:22.076Z,22.58
2023-02-18T06:21:50.073Z,22.20
2023-02-18T06:24:18.115Z,22.50
2023-02-18T06:26:45.947Z,20.60
2023-02-18T06:29:13.800Z,20.95
2023-02-18T06:31:43.255Z,21.35
2023-02-18T06:34:11.260Z,22.23
2023-02-18T06:36:39.181Z,21.88
2023-02-18T06:39:10.003Z,21.25
2023-02-18T06:41:38.232Z,22.08
2023-02-18T06:44:06.540Z,22.35
2023-02-18T06:46:34.995Z,22.08
2023-02-18T06:49:04.500Z,19.90
2023-02-18T06:51:32.448Z,20.08
2023-02-18T06:54:00.338Z,20.33
2023-02-18T06:56:30.111Z,21.30
2023-02-18T06:58:58.916Z,21.77
2023-02-18T07:01:26.739Z,21.27
2023-02-18T07:03:54.616Z,21.02
2023-02-18T07:06:23.843Z,21.40
2023-02-18T07:08:51.659Z,21.10
2023-02-18T07:11:19.581Z,20.30
2023-02-18T07:13:47.741Z,18.90
2023-02-18T07:16:15.647Z,21.75
2023-02-18T07:18:43.601Z,20.15
2023-02-18T07:21:11.283Z,21.23
2023-02-18T07:23:40.644Z,19.25
2023-02-18T07:26:10.448Z,19.40
2023-02-18T07:28:39.088Z,19.65
2023-02-18T07:31:08.142Z,19.77
2023-02-18T07:33:36.036Z,19.08
2023-02-18T07:36:04.628Z,19.25
2023-02-18T07:38:32.514Z,21.08
2023-02-18T07:41:01.840Z,22.48
2023-02-18T07:43:29.736Z,22.95
2023-02-18T07:45:57.486Z,21.73
2023-02-18T07:48:25.610Z,21.67
2023-02-18T07:50:53.371Z,20.88
2023-02-18T07:53:21.194Z,33.88
2023-02-18T07:55:51.715Z,23.98
2023-02-18T07:58:35.190Z,23.23
2023-02-18T08:01:05.862Z,20.65
2023-02-18T08:03:34.912Z,21.75
2023-02-18T08:06:03.491Z,20.52
2023-02-18T08:08:34.620Z,21.30
2023-02-18T08:11:17.062Z,20.48
2023-02-18T08:13:48.645Z,20.92
2023-02-18T08:16:17.101Z,21.27
2023-02-18T08:18:45.019Z,21.05
2023-02-18T08:21:12.816Z,21.80
2023-02-18T08:23:41.709Z,21.50
2023-02-18T08:26:10.730Z,21.60
2023-02-18T08:28:43.174Z,21.30
2023-02-18T08:31:18.976Z,18.85
2023-02-18T08:33:47.464Z,19.00
2023-02-18T08:36:15.201Z,20.20
2023-02-18T08:38:43.047Z,20.10
2023-02-18T08:41:11.528Z,19.35
2023-02-18T08:43:40.286Z,16.52
2023-02-18T08:46:08.323Z,16.65
2023-02-18T08:48:46.381Z,18.08
2023-02-18T08:51:16.781Z,18.23
2023-02-18T08:53:46.230Z,18.73
2023-02-18T08:56:15.564Z,19.60
2023-02-18T08:58:44.655Z,18.35
2023-02-18T09:01:14.022Z,18.38
2023-02-18T09:03:42.171Z,17.55
2023-02-18T09:06:11.554Z,18.73
2023-02-18T09:08:39.423Z,18.77
2023-02-18T09:11:08.566Z,17.40
2023-02-18T09:13:36.773Z,18.00
2023-02-18T09:16:07.711Z,18.15
2023-02-18T09:18:36.243Z,18.85
2023-02-18T09:21:06.925Z,17.92
2023-02-18T09:23:36.702Z,18.10
2023-02-18T09:26:06.341Z,17.83
2023-02-18T09:28:34.514Z,18.23
2023-02-18T09:31:06.480Z,18.55
2023-02-18T09:33:37.178Z,17.95
2023-02-18T09:36:05.664Z,23.88
2023-02-18T09:38:33.818Z,32.83
2023-02-18T09:41:07.915Z,20.10
2023-02-18T09:43:39.398Z,18.25
2023-02-18T09:46:16.228Z,17.77
2023-02-18T09:48:46.985Z,17.95
2023-02-18T09:51:15.586Z,18.83
2023-02-18T09:53:47.103Z,18.65
2023-02-18T09:56:21.048Z,18.85
2023-02-18T09:58:51.101Z,18.35
2023-02-18T10:01:25.809Z,18.45
2023-02-18T10:03:55.749Z,18.25
2023-02-18T10:06:26.653Z,18.75
2023-02-18T10:08:55.863Z,18.50
2023-02-18T10:11:30.931Z,20.20
2023-02-18T10:14:01.641Z,17.42
2023-02-18T10:16:30.238Z,18.77
2023-02-18T10:19:00.247Z,19.02
2023-02-18T10:21:32.271Z,19.20
2023-02-18T10:24:04.318Z,17.30
2023-02-18T10:26:36.244Z,18.58
2023-02-18T10:29:04.932Z,17.92
2023-02-18T10:31:38.008Z,17.38
2023-02-18T10:34:13.983Z,18.50
2023-02-18T10:36:46.589Z,17.48
2023-02-18T10:39:41.433Z,16.98
2023-02-18T10:42:23.296Z,17.27
2023-02-18T10:45:01.200Z,17.20
2023-02-18T10:47:39.266Z,18.10
2023-02-18T10:50:13.341Z,17.50
2023-02-18T10:52:44.866Z,15.75
2023-02-18T10:55:16.224Z,16.65
2023-02-18T10:57:50.532Z,16.50
2023-02-18T11:00:24.204Z,17.58
2023-02-18T11:03:14.973Z,20.80
2023-02-18T11:05:43.477Z,19.08
2023-02-18T11:08:17.225Z,18.92
2023-02-18T11:10:47.078Z,23.88
2023-02-18T11:13:24.015Z,18.70
2023-02-18T11:15:58.290Z,17.85
2023-02-18T11:18:33.079Z,20.55
2023-02-18T11:21:03.828Z,19.25
2023-02-18T11:23:32.357Z,20.40
2023-02-18T11:26:03.706Z,22.48
2023-02-18T11:28:45.056Z,21.55
2023-02-18T11:31:20.215Z,21.35
2023-02-18T11:33:52.265Z,21.55
2023-02-18T11:36:25.444Z,20.17
2023-02-18T11:38:56.174Z,20.85
2023-02-18T11:41:32.735Z,20.10
2023-02-18T11:44:03.398Z,19.08
2023-02-18T11:46:31.456Z,20.00
2023-02-18T11:49:20.394Z,19.92
2023-02-18T11:51:50.732Z,18.08
2023-02-18T11:54:25.367Z,18.05
2023-02-18T11:56:58.878Z,16.67
2023-02-18T11:59:30.321Z,15.25
2023-02-18T12:02:03.002Z,16.05
2023-02-18T12:04:38.774Z,14.88
2023-02-18T12:07:17.451Z,14.43
2023-02-18T12:09:48.777Z,14.52
2023-02-18T12:12:19.818Z,14.07
2023-02-18T12:14:49.093Z,13.13
2023-02-18T12:17:35.216Z,13.93
2023-02-18T12:20:37.406Z,15.13
2023-02-18T12:23:15.138Z,14.25
2023-02-18T12:25:53.479Z,14.20
2023-02-18T12:28:45.065Z,15.60
2023-02-18T12:31:39.098Z,14.88
2023-02-18T12:34:26.545Z,17.02
2023-02-18T12:37:04.351Z,17.27
2023-02-18T12:39:56.189Z,16.67
2023-02-18T12:42:40.423Z,16.58
2023-02-18T12:45:36.018Z,16.13
2023-02-18T12:48:33.326Z,15.55
2023-02-18T12:51:25.881Z,16.38
2023-02-18T12:54:35.958Z,14.50
2023-02-18T12:57:43.614Z,15.95
2023-02-18T13:00:34.471Z,15.70
2023-02-18T13:03:35.598Z,13.50
2023-02-18T13:06:29.424Z,11.65
2023-02-18T13:09:08.777Z,11.68
2023-02-18T13:11:44.528Z,13.05
2023-02-18T13:14:17.213Z,13.07
2023-02-18T13:16:49.102Z,11.77
2023-02-18T13:19:24.108Z,8.48
2023-02-18T13:21:55.250Z,9.15
2023-02-18T13:24:31.090Z,6.82
2023-02-18T13:27:08.298Z,6.05
2023-02-18T13:29:41.208Z,6.15
2023-02-18T13:32:19.374Z,5.70
2023-02-18T13:34:55.248Z,5.72
2023-02-18T13:37:31.433Z,6.03
2023-02-18T13:40:01.107Z,6.18
2023-02-18T13:42:38.047Z,6.43
2023-02-18T13:45:23.586Z,5.43
2023-02-18T13:47:52.218Z,4.60
2023-02-18T13:50:29.670Z,6.65
2023-02-18T13:53:21.411Z,5.28
2023-02-18T13:55:57.231Z,7.70
2023-02-18T13:58:29.591Z,5.65
2023-02-18T14:01:02.869Z,5.75
2023-02-18T14:03:38.310Z,5.18
2023-02-18T14:06:19.093Z,5.93
2023-02-18T14:08:47.909Z,5.05
2023-02-18T14:11:46.513Z,5.20
2023-02-18T14:14:40.340Z,5.78
2023-02-18T14:17:33.533Z,5.35
2023-02-18T14:20:45.128Z,5.53
2023-02-18T14:23:55.644Z,5.25
2023-02-18T14:26:28.809Z,5.68
2023-02-18T14:29:00.586Z,6.10
2023-02-18T14:31:37.354Z,5.30
2023-02-18T14:34:30.251Z,5.75
2023-02-18T14:37:10.420Z,7.65
2023-02-18T14:39:56.569Z,7.25
2023-02-18T14:42:33.432Z,8.48
2023-02-18T14:45:16.312Z,6.80
2023-02-18T14:48:00.753Z,7.38
2023-02-18T14:50:34.194Z,8.73
2023-02-18T14:53:07.027Z,9.10
2023-02-18T14:55:41.231Z,9.30
2023-02-18T14:58:17.939Z,10.25
2023-02-18T15:00:46.240Z,10.93
2023-02-18T15:03:15.556Z,10.88
2023-02-18T15:05:44.484Z,9.38
2023-02-18T15:08:17.484Z,8.55
2023-02-18T15:10:50.012Z,8.48
2023-02-18T15:13:21.792Z,8.70
2023-02-18T15:15:52.552Z,7.75
2023-02-18T15:18:27.583Z,8.23
2023-02-18T15:20:56.059Z,9.55
2023-02-18T15:23:24.118Z,7.40
2023-02-18T15:25:54.747Z,6.78
2023-02-18T15:28:28.586Z,6.72
2023-02-18T15:30:58.432Z,8.90
2023-02-18T15:33:30.199Z,7.50
2023-02-18T15:36:02.418Z,14.65
2023-02-18T15:38:31.383Z,12.75
2023-02-18T15:41:01.660Z,6.93
2023-02-18T15:43:30.223Z,7.15
2023-02-18T15:45:59.289Z,15.23
2023-02-18T15:48:33.402Z,8.45
2023-02-18T15:51:15.918Z,9.48
2023-02-18T15:53:47.696Z,7.80
2023-02-18T15:56:31.184Z,7.10
2023-02-18T15:59:17.017Z,7.00
2023-02-18T16:01:50.162Z,6.38
2023-02-18T16:04:18.198Z,6.90
2023-02-18T16:06:49.348Z,7.28
2023-02-18T16:09:23.009Z,7.40
2023-02-18T16:11:58.015Z,6.72
2023-02-18T16:14:30.162Z,7.07
2023-02-18T16:17:09.216Z,6.78
2023-02-18T16:19:51.668Z,7.65
2023-02-18T16:22:39.276Z,7.70
2023-02-18T16:25:16.968Z,8.57
2023-02-18T16:27:52.106Z,17.45
2023-02-18T16:30:22.784Z,14.02
2023-02-18T16:32:52.253Z,15.63
2023-02-18T16:35:21.241Z,23.67
2023-02-18T16:37:50.573Z,12.65
2023-02-18T16:40:28.659Z,16.70
2023-02-18T16:43:00.555Z,13.07
2023-02-18T16:45:35.174Z,11.02
2023-02-18T16:48:04.399Z,13.20
2023-02-18T16:50:34.410Z,11.95
2023-02-18T16:53:02.304Z,10.88
2023-02-18T16:55:31.018Z,10.95
2023-02-18T16:58:00.401Z,11.50
2023-02-18T17:00:28.380Z,15.80
2023-02-18T17:02:58.965Z,13.23
2023-02-18T17:05:28.575Z,10.65
2023-02-18T17:08:00.022Z,10.23
2023-02-18T17:10:27.927Z,9.80
2023-02-18T17:12:55.605Z,12.45
2023-02-18T17:15:30.927Z,12.82
2023-02-18T17:17:59.867Z,8.05
2023-02-18T17:20:28.799Z,10.98
2023-02-18T17:22:56.741Z,9.43
2023-02-18T17:25:30.202Z,9.50
2023-02-18T17:27:58.221Z,25.95
2023-02-18T17:30:27.584Z,23.88
2023-02-18T17:32:55.474Z,16.63
2023-02-18T17:35:24.453Z,9.65
2023-02-18T17:37:52.284Z,10.00
2023-02-18T17:40:22.026Z,10.45
2023-02-18T17:42:51.172Z,10.18
2023-02-18T17:45:23.669Z,22.60
2023-02-18T17:47:52.887Z,10.73
2023-02-18T17:50:20.619Z,16.95
2023-02-18T17:52:48.464Z,27.05
2023-02-18T17:55:20.296Z,19.48
2023-02-18T17:57:48.285Z,21.45
2023-02-18T18:00:18.137Z,16.10
2023-02-18T18:02:46.137Z,23.05
2023-02-18T18:05:22.213Z,22.42
2023-02-18T18:07:56.571Z,41.78
2023-02-18T18:10:32.312Z,44.97
2023-02-18T18:13:02.694Z,70.23
2023-02-18T18:15:34.952Z,31.70
2023-02-18T18:18:03.406Z,34.53
2023-02-18T18:20:35.092Z,26.77
2023-02-18T18:23:05.044Z,23.67
2023-02-18T18:25:37.431Z,18.88
2023-02-18T18:28:06.443Z,22.55
2023-02-18T18:30:37.260Z,22.02
2023-02-18T18:33:13.788Z,24.92
2023-02-18T18:35:43.867Z,25.20
2023-02-18T18:38:11.809Z,17.17
2023-02-18T18:40:39.800Z,24.35
2023-02-18T18:43:07.630Z,22.58
2023-02-18T18:45:39.543Z,22.63
2023-02-18T18:48:07.548Z,20.13
2023-02-18T18:50:37.737Z,19.23
2023-02-18T18:53:07.140Z,18.42
2023-02-18T18:55:36.918Z,23.65
2023-02-18T18:58:05.974Z,24.67
2023-02-18T19:00:35.739Z,22.85
2023-02-18T19:03:04.408Z,19.13
2023-02-18T19:05:34.208Z,21.10
2023-02-18T19:08:05.185Z,19.73
2023-02-18T19:10:37.585Z,17.95
2023-02-18T19:13:07.911Z,20.52
2023-02-18T19:15:35.829Z,21.38
2023-02-18T19:18:03.643Z,13.90
2023-02-18T19:20:33.186Z,15.25
2023-02-18T19:23:02.998Z,15.95
2023-02-18T19:25:31.624Z,15.48
2023-02-18T19:28:02.631Z,15.73
2023-02-18T19:30:32.949Z,16.15
2023-02-18T19:33:03.043Z,15.98
2023-02-18T19:35:31.834Z,15.13
2023-02-18T19:38:00.189Z,12.82
2023-02-18T19:40:29.772Z,13.85
2023-02-18T19:42:59.562Z,15.00
2023-02-18T19:45:27.610Z,18.52
2023-02-18T19:47:56.219Z,12.40
2023-02-18T19:50:24.811Z,10.70
2023-02-18T19:52:53.156Z,12.05
2023-02-18T19:55:21.423Z,12.85
2023-02-18T19:57:49.237Z,14.50
2023-02-18T20:00:20.890Z,10.80
2023-02-18T20:02:49.314Z,11.43
2023-02-18T20:05:17.563Z,9.98
2023-02-18T20:07:48.533Z,24.67
2023-02-18T20:10:18.238Z,12.20
2023-02-18T20:12:45.914Z,12.32
2023-02-18T20:15:13.802Z,14.57
2023-02-18T20:17:42.868Z,19.73
2023-02-18T20:20:10.979Z,18.67
2023-02-18T20:22:38.852Z,13.82
2023-02-18T20:25:07.304Z,15.90
2023-02-18T20:27:38.456Z,12.27
2023-02-18T20:30:11.484Z,18.95
2023-02-18T20:32:39.606Z,13.93
2023-02-18T20:35:09.557Z,9.95
2023-02-18T20:37:39.172Z,10.00
2023-02-18T20:40:07.697Z,8.85
2023-02-18T20:42:35.882Z,11.52
2023-02-18T20:45:04.115Z,11.23
2023-02-18T20:47:33.181Z,13.43
2023-02-18T20:50:01.364Z,12.30
2023-02-18T20:52:33.565Z,12.25
2023-02-18T20:55:02.444Z,10.90
2023-02-18T20:57:30.281Z,10.85
2023-02-18T20:59:58.645Z,10.25
2023-02-18T21:02:26.362Z,9.75
2023-02-18T21:04:54.678Z,10.55
2023-02-18T21:07:22.932Z,9.55
2023-02-18T21:09:52.179Z,10.85
2023-02-18T21:12:20.058Z,10.35
2023-02-18T21:14:47.821Z,10.82
2023-02-18T21:17:15.635Z,10.13
2023-02-18T21:19:43.575Z,10.18
2023-02-18T21:22:11.353Z,9.77
2023-02-18T21:24:39.289Z,9.93
2023-02-18T21:27:08.475Z,10.82
2023-02-18T21:29:36.408Z,10.27
2023-02-18T21:32:05.050Z,19.48
2023-02-18T21:34:33.290Z,10.40
2023-02-18T21:37:01.253Z,10.75
2023-02-18T21:39:29.387Z,10.85
2023-02-18T21:41:59.987Z,19.02
2023-02-18T21:44:41.182Z,9.52
2023-02-18T21:47:11.428Z,9.80
2023-02-18T21:49:40.457Z,14.98
2023-02-18T21:52:08.925Z,21.50
2023-02-18T21:54:40.142Z,24.33
2023-02-18T21:57:11.765Z,22.35
2023-02-18T21:59:42.220Z,30.77
2023-02-18T22:02:16.797Z,15.32
2023-02-18T22:04:45.447Z,12.93
2023-02-18T22:07:14.142Z,16.85
2023-02-18T22:09:42.783Z,14.25
2023-02-18T22:12:14.643Z,31.05
2023-02-18T22:14:45.032Z,25.52
2023-02-18T22:17:14.163Z,39.67
2023-02-18T22:19:42.653Z,60.30
2023-02-18T22:22:11.577Z,31.13
2023-02-18T22:24:40.038Z,23.05
2023-02-18T22:27:08.507Z,13.30
2023-02-18T22:29:36.820Z,17.80
2023-02-18T22:32:07.040Z,11.68
2023-02-18T22:34:35.751Z,11.70
2023-02-18T22:37:04.042Z,31.58
2023-02-18T22:39:32.668Z,21.45
2023-02-18T22:42:01.026Z,12.40
2023-02-18T22:44:29.408Z,13.23
2023-02-18T22:46:58.228Z,9.77
2023-02-18T22:49:28.418Z,8.82
2023-02-18T22:51:56.751Z,8.57
2023-02-18T22:54:25.077Z,28.05
2023-02-18T22:56:54.980Z,9.25
2023-02-18T22:59:23.612Z,8.45
2023-02-18T23:01:53.293Z,8.68
2023-02-18T23:04:22.108Z,8.07
2023-02-18T23:06:52.137Z,7.85
2023-02-18T23:09:23.063Z,10.35
2023-02-18T23:11:52.980Z,9.35
2023-02-18T23:14:24.745Z,8.85
2023-02-18T23:17:15.206Z,9.63
2023-02-18T23:19:45.425Z,8.70
2023-02-18T23:22:17.669Z,9.52
2023-02-18T23:24:46.857Z,10.30
2023-02-18T23:27:18.557Z,10.35
2023-02-18T23:29:47.515Z,12.18
2023-02-18T23:32:15.840Z,15.73
2023-02-18T23:34:44.547Z,25.85
2023-02-18T23:37:14.309Z,13.65
2023-02-18T23:39:42.699Z,10.57
2023-02-18T23:42:10.981Z,9.82
2023-02-18T23:44:39.483Z,9.63
2023-02-18T23:47:08.868Z,10.90
2023-02-18T23:49:37.348Z,10.45
2023-02-18T23:52:05.899Z,10.68
2023-02-18T23:54:36.190Z,9.70
2023-02-18T23:57:04.601Z,10.05
2023-02-18T23:59:33.303Z,10.80
